^^
Datos históricos de la estación: Murcia-Puente Tocinos
Diario Informe para Julio 27, 2019 Unidades:  Ingés    Métrico   Ambas
Diario Semanal Mensual Anual
  Máxima: Mínima: Promedio:
Temperatura: 72.5 °F 57.6 °F 63.7 °F
Punto de rocio: 60.3 °F 54.9 °F 57.9 °F
Humedad: 91% 63% 82%
Velocidad viento: 7.6mph 0mph 2.7mph
Racha viento: 15mph - -
Viento- - SSE
Presión: 30.2 in 30.1 in -
Precipitación: 0 in    
 
 
Tabla de datos para Julio 27, 2019
Hora Temperatura Punto de rocio Presión Viento Velocidad viento Racha viento Humedad Intensidad lluvia(por hora) Nubes
00:04 61.9 °F 58.8 °F 30.1 in ESE 1.1 mph 3 mph 90% 0 in
00:09 61.9 °F 58.8 °F 30.1 in ESE 1.4 mph 3 mph 90% 0 in
00:14 61.7 °F 58.6 °F 30.1 in ESE 0.4 mph 4.3 mph 90% 0 in
00:19 61.5 °F 58.3 °F 30.1 in Calm   5 mph 89.3% 0 in
00:24 61.5 °F 58.1 °F 30.1 in SSO 1.5 mph 5.9 mph 88.6% 0 in
00:29 61.5 °F 57.9 °F 30.1 in Sur 2 mph 6.9 mph 87.4% 0 in
00:34 61.7 °F 57.7 °F 30.1 in SSE 3.2 mph 7 mph 86.8% 0 in
00:39 61.7 °F 57.6 °F 30.1 in SE 3.6 mph 5 mph 86% 0 in
00:44 61.5 °F 57.4 °F 30.1 in SSE 2.7 mph 5 mph 86% 0 in
00:49 61.3 °F 57.2 °F 30.1 in SSE 2.4 mph 5.2 mph 86% 0 in
00:54 61.3 °F 57.2 °F 30.1 in SSE 2.7 mph 5.2 mph 86.6% 0 in
00:59 61.2 °F 57.4 °F 30.1 in SE 2.9 mph 5 mph 87% 0 in
01:04 61 °F 57.2 °F 30.1 in SE 2.9 mph 5 mph 87% 0 in
01:09 61 °F 57 °F 30.1 in SSE 2.9 mph 5 mph 87% 0 in
01:14 60.6 °F 56.8 °F 30.1 in SSE 2.5 mph 5 mph 87% 0 in
01:19 60.6 °F 56.8 °F 30.1 in SSE 2.4 mph 3.5 mph 87.6% 0 in
01:24 60.6 °F 57 °F 30.1 in SSE 1.7 mph 3.6 mph 88% 0 in
01:29 60.6 °F 57 °F 30.1 in SSE 1.4 mph 4 mph 88% 0 in
01:34 60.6 °F 57 °F 30.1 in SSE 0.4 mph 2.3 mph 88% 0 in
01:39 60.4 °F 56.8 °F 30.1 in Calm   2 mph 88% 0 in
01:44 60.4 °F 56.8 °F 30.1 in Calm   2.9 mph 88% 0 in
01:49 60.3 °F 56.7 °F 30.1 in Calm   3 mph 88% 0 in
01:54 60.3 °F 56.7 °F 30.1 in SSE 1 mph 2.4 mph 88.2% 0 in
01:59 60.1 °F 56.7 °F 30.1 in SSE 1.4 mph 2.9 mph 89% 0 in
02:04 59.9 °F 56.5 °F 30.1 in SE 1.4 mph 3.5 mph 89% 0 in
02:09 59.7 °F 56.5 °F 30.1 in NE 1.4 mph 3 mph 89% 0 in
02:14 59.5 °F 56.5 °F 30.1 in NE 1.4 mph 2 mph 89.4% 0 in
02:19 59.5 °F 56.7 °F 30.1 in NE 1.4 mph 2.3 mph 90% 0 in
02:24 59.5 °F 56.7 °F 30.1 in NE 0.4 mph 2.9 mph 90% 0 in
02:29 59.5 °F 56.7 °F 30.1 in Calm   3 mph 90% 0 in
02:34 59.5 °F 56.7 °F 30.1 in Calm   2.9 mph 90% 0 in
02:39 59.5 °F 56.5 °F 30.1 in Calm   3 mph 90% 0 in
02:44 59.4 °F 56.5 °F 30.1 in ENE 1.1 mph 3.5 mph 90% 0 in
02:49 59.4 °F 56.5 °F 30.1 in Este 1.4 mph 3.5 mph 90% 0 in
02:54 59.2 °F 56.3 °F 30.1 in SE 1.9 mph 4.6 mph 90% 0 in
02:59 59 °F 56.1 °F 30.1 in SE 2 mph 5 mph 90% 0 in
02:04 58.8 °F 55.9 °F 30.1 in SSE 2.3 mph 5 mph 90% 0 in
02:09 58.8 °F 55.9 °F 30.1 in SSE 2.4 mph 5 mph 90% 0 in
02:14 58.8 °F 55.9 °F 30.1 in SSE 1.7 mph 2 mph 90% 0 in
02:19 58.8 °F 55.9 °F 30.1 in SSE 1.4 mph   90% 0 in
02:24 58.8 °F 55.9 °F 30.1 in SSE 0.4 mph 5.2 mph 90% 0 in
02:29 58.8 °F 55.9 °F 30.1 in Calm   5 mph 90% 0 in
02:34 59 °F 56.1 °F 30.1 in SSO 2.1 mph 5.2 mph 90% 0 in
02:39 59 °F 56.1 °F 30.1 in SO 2.9 mph 5 mph 90% 0 in
02:44 59 °F 56.1 °F 30.1 in SSO 2.9 mph 5 mph 90% 0 in
02:49 59 °F 56.1 °F 30.1 in SO 2.9 mph 3 mph 90% 0 in
02:54 59 °F 55.9 °F 30.1 in SO 1.7 mph 3 mph 90% 0 in
02:59 58.8 °F 55.9 °F 30.1 in OSO 1.4 mph 2.4 mph 90% 0 in
03:04 58.6 °F 55.6 °F 30.1 in OSO 0.3 mph 2 mph 89.7% 0 in
03:09 58.5 °F 55.6 °F 30.1 in Calm   1.4 mph 90% 0 in
03:14 58.5 °F 55.8 °F 30.1 in Calm   1 mph 90.6% 0 in
03:19 58.6 °F 55.9 °F 30.1 in Calm   2.9 mph 91% 0 in
03:24 58.6 °F 55.9 °F 30.1 in Calm   3.5 mph 91% 0 in
03:29 58.6 °F 55.9 °F 30.1 in Calm   4.6 mph 91% 0 in
03:34 58.6 °F 56.1 °F 30.1 in SSE 1.4 mph 5 mph 91% 0 in
03:39 58.8 °F 56.1 °F 30.1 in Sur 2 mph 5 mph 91% 0 in
03:44 59 °F 56.3 °F 30.1 in Sur 2.3 mph 5 mph 91% 0 in
03:49 59 °F 56.5 °F 30.1 in Sur 2.4 mph 4.3 mph 91% 0 in
03:54 59.2 °F 56.7 °F 30.1 in Sur 2.1 mph 5 mph 91% 0 in
03:59 59.2 °F 56.7 °F 30.1 in Sur 2 mph 5 mph 91% 0 in
04:04 59.2 °F 56.7 °F 30.1 in Sur 2.7 mph 5 mph 91% 0 in
04:09 59.2 °F 56.7 °F 30.1 in Sur 2.9 mph 5 mph 91% 0 in
04:14 59.2 °F 56.7 °F 30.1 in SSO 2.5 mph 4 mph 91% 0 in
04:19 59.2 °F 56.7 °F 30.1 in SSO 2.4 mph 3 mph 91% 0 in
04:24 59.2 °F 56.3 °F 30.1 in SSO 1.7 mph 2.4 mph 90.3% 0 in
04:29 59.2 °F 56.1 °F 30.1 in SSO 1.4 mph 3.5 mph 90% 0 in
04:34 59 °F 56.1 °F 30.1 in SSO 1.4 mph 3.6 mph 90% 0 in
04:39 58.8 °F 55.9 °F 30.1 in SSO 1.4 mph 4 mph 90% 0 in
04:44 58.8 °F 55.9 °F 30.1 in SSO 1.7 mph 3 mph 90% 0 in
04:49 58.8 °F 55.9 °F 30.1 in SSO 1.8 mph 2.4 mph 90% 0 in
04:54 58.8 °F 55.9 °F 30.1 in SSO 0.5 mph 3.6 mph 90% 0 in
04:59 58.8 °F 55.9 °F 30.1 in Calm   4.3 mph 90% 0 in
05:04 58.8 °F 55.9 °F 30.1 in SO 1.9 mph 5 mph 90% 0 in
05:09 58.6 °F 55.8 °F 30.1 in SO 2.4 mph 5 mph 90% 0 in
05:14 58.6 °F 55.8 °F 30.1 in SO 2.7 mph 5 mph 90% 0 in
05:19 58.6 °F 55.8 °F 30.1 in SO 2.9 mph 5 mph 90% 0 in
05:24 58.5 °F 55.6 °F 30.1 in OSO 2.5 mph 5.2 mph 90% 0 in
05:29 58.5 °F 55.6 °F 30.1 in OSO 2.4 mph 5 mph 90% 0 in
05:34 58.5 °F 55.4 °F 30.1 in OSO 2.7 mph 5 mph 90% 0 in
05:39 58.3 °F 55.4 °F 30.1 in OSO 2.9 mph 5.2 mph 90% 0 in
05:44 58.3 °F 55.4 °F 30.1 in SO 2.9 mph 5.8 mph 90% 0 in
05:49 58.3 °F 55.4 °F 30.1 in SO 2.9 mph 6 mph 90% 0 in
05:54 58.3 °F 55.6 °F 30.1 in SO 3 mph 6 mph 90.9% 0 in
05:59 58.3 °F 55.6 °F 30.1 in OSO 3.1 mph 5 mph 91% 0 in
06:04 58.3 °F 55.6 °F 30.1 in OSO 2.9 mph 5 mph 91% 0 in
06:09 58.1 °F 55.6 °F 30.1 in SO 2.9 mph 5.2 mph 91% 0 in
06:14 58.3 °F 55.6 °F 30.1 in SSO 2.9 mph 5.2 mph 91% 0 in
06:19 58.3 °F 55.8 °F 30.1 in SSO 2.9 mph 5.2 mph 91% 0 in
06:24 58.3 °F 55.8 °F 30.1 in SSO 3.4 mph 5.4 mph 91% 0 in
06:29 58.5 °F 55.8 °F 30.1 in Sur 3.6 mph 6 mph 91% 0 in
06:34 58.5 °F 55.8 °F 30.1 in SSE 3.6 mph 6 mph 90.6% 0 in
06:39 58.5 °F 55.4 °F 30.1 in SSE 3.6 mph 6 mph 90% 0 in
06:44 58.3 °F 55.4 °F 30.1 in Sur 3.2 mph 5 mph 90% 0 in
06:49 58.3 °F 55.4 °F 30.1 in SSE 3.1 mph 5 mph 90% 0 in
06:54 58.1 °F 55.2 °F 30.1 in SSE 2.9 mph 5 mph 90% 0 in
06:59 57.9 °F 55 °F 30.1 in SE 2.9 mph 5 mph 90% 0 in
07:04 57.7 °F 54.9 °F 30.1 in SSE 2.9 mph 5 mph 90.3% 0 in
07:09 57.6 °F 55 °F 30.1 in Sur 2.9 mph 5 mph 91% 0 in
07:14 57.6 °F 55 °F 30.1 in Sur 2.5 mph 5 mph 91% 0 in
07:19 57.6 °F 55 °F 30.1 in SO 2.4 mph 5 mph 91% 0 in
07:24 57.6 °F 55 °F 30.1 in SO 2.4 mph 5 mph 91% 0 in
07:29 57.6 °F 55 °F 30.1 in OSO 2.4 mph 5 mph 91% 0 in
07:34 57.6 °F 55 °F 30.1 in OSO 2.1 mph 4 mph 91% 0 in
07:39 57.6 °F 55 °F 30.1 in OSO 2 mph 4 mph 91% 0 in
07:44 57.6 °F 55 °F 30.1 in OSO 2 mph 5.9 mph 91% 0 in
07:49 57.7 °F 55 °F 30.1 in OSO 2 mph 6 mph 91% 0 in
07:54 57.7 °F 55 °F 30.1 in OSO 2.3 mph 5.4 mph 91% 0 in
07:59 57.6 °F 55 °F 30.1 in Oeste 2.4 mph 6.9 mph 91% 0 in
08:04 57.6 °F 55 °F 30.1 in OSO 3.4 mph 7 mph 91% 0 in
08:09 57.6 °F 55 °F 30.1 in SO 3.6 mph 5.2 mph 91% 0 in
08:14 57.6 °F 55 °F 30.1 in OSO 3.2 mph 5.8 mph 91% 0 in
08:19 57.7 °F 55 °F 30.1 in OSO 3.1 mph 6 mph 91% 0 in
08:24 57.7 °F 55 °F 30.2 in OSO 3 mph 5 mph 91% 0 in
08:29 57.9 °F 55.2 °F 30.2 in OSO 2.9 mph 5 mph 91% 0 in
08:34 57.9 °F 55.4 °F 30.2 in SSE 1.8 mph 5.2 mph 91% 0 in
08:39 58.1 °F 55.4 °F 30.2 in Sur 1.4 mph 5 mph 91% 0 in
08:44 58.1 °F 55.6 °F 30.2 in SSE 2.1 mph 5 mph 91% 0 in
08:49 58.1 °F 55.6 °F 30.2 in Sur 2.4 mph 5.2 mph 91% 0 in
08:54 58.3 °F 55.6 °F 30.2 in Sur 2.8 mph 5.2 mph 91% 0 in
08:59 58.3 °F 55.8 °F 30.2 in Sur 2.9 mph 6.2 mph 91% 0 in
09:04 58.5 °F 55.8 °F 30.2 in Sur 3.4 mph 6.2 mph 91% 0 in
09:09 58.5 °F 55.6 °F 30.2 in SSO 3.6 mph 6.9 mph 90.3% 0 in
09:14 58.6 °F 55.8 °F 30.2 in SO 4.1 mph 7.4 mph 90% 0 in
09:19 59 °F 56.1 °F 30.2 in SO 4.3 mph 7 mph 90% 0 in
09:24 59.4 °F 56.1 °F 30.2 in SSO 4.1 mph 6 mph 89% 0 in
09:29 59.7 °F 56.3 °F 30.2 in SO 4 mph 6 mph 88.3% 0 in
09:34 60.1 °F 56.5 °F 30.2 in OSO 3.7 mph 6 mph 87.8% 0 in
09:39 60.3 °F 56.5 °F 30.2 in Oeste 3.6 mph 6 mph 87% 0 in
09:44 60.4 °F 56.7 °F 30.2 in OSO 3.2 mph 6.9 mph 87% 0 in
09:49 60.8 °F 57 °F 30.2 in SO 3.1 mph 7 mph 87% 0 in
09:54 61.2 °F 56.8 °F 30.2 in OSO 3.5 mph 6.4 mph 86.2% 0 in
09:59 61.3 °F 57 °F 30.2 in SO 3.6 mph 7.4 mph 85.9% 0 in
10:04 61.5 °F 57 °F 30.2 in SO 3.9 mph 7 mph 85% 0 in
10:09 61.9 °F 57.2 °F 30.2 in SO 4 mph 7 mph 85% 0 in
10:14 62.1 °F 57.4 °F 30.2 in SSO 4 mph 7.4 mph 85% 0 in
10:19 62.2 °F 57.7 °F 30.2 in SO 4 mph 8.1 mph 85% 0 in
10:24 62.4 °F 57.7 °F 30.2 in Sur 4.5 mph 8 mph 84.9% 0 in
10:29 62.8 °F 57.7 °F 30.2 in SO 4.7 mph 6.9 mph 83.6% 0 in
10:34 62.8 °F 57.6 °F 30.2 in Oeste 3.9 mph 7 mph 83% 0 in
10:39 63 °F 57.7 °F 30.2 in SSO 3.6 mph 6 mph 83% 0 in
10:44 63 °F 57.7 °F 30.2 in SO 3.2 mph 6 mph 83% 0 in
10:49 63.1 °F 57.7 °F 30.2 in SSO 3.1 mph 5.9 mph 82.7% 0 in
10:54 63.3 °F 57.6 °F 30.2 in SO 3.1 mph 6 mph 81.6% 0 in
10:59 63.5 °F 57.7 °F 30.2 in Sur 3.1 mph 6.9 mph 81.5% 0 in
11:04 64 °F 57.9 °F 30.2 in SSO 2.9 mph 7 mph 80.3% 0 in
11:09 64.6 °F 58.1 °F 30.2 in SSO 2.9 mph 7 mph 79.6% 0 in
11:14 64.8 °F 58.1 °F 30.2 in SSO 2.9 mph 5 mph 79.3% 0 in
11:19 64.9 °F 58.1 °F 30.2 in SO 2.9 mph 5 mph 78.6% 0 in
11:24 65.3 °F 58.3 °F 30.2 in Sur 2.2 mph 5.9 mph 78.2% 0 in
11:29 65.5 °F 58.1 °F 30.2 in ONO 2 mph 6 mph 77% 0 in
11:34 65.8 °F 58.3 °F 30.2 in SO 2.3 mph 5.9 mph 76.6% 0 in
11:39 66.2 °F 58.3 °F 30.2 in SO 2.4 mph 6 mph 75.5% 0 in
11:44 66.4 °F 58.3 °F 30.2 in Oeste 3.3 mph 5.9 mph 75% 0 in
11:49 66.6 °F 58.5 °F 30.2 in OSO 3.6 mph 6 mph 74.9% 0 in
11:54 66.9 °F 58.5 °F 30.2 in OSO 2.4 mph 6.2 mph 74% 0 in
11:59 66.9 °F 58.5 °F 30.2 in OSO 2 mph 6 mph 74% 0 in
12:04 67.3 °F 58.6 °F 30.2 in Oeste 2.7 mph 5 mph 73.7% 0 in
12:09 67.6 °F 58.5 °F 30.2 in Oeste 2.9 mph 5.2 mph 72.3% 0 in
12:14 67.6 °F 58.6 °F 30.1 in ONO 2.9 mph 5 mph 72.9% 0 in
12:19 68 °F 59 °F 30.1 in NE 2.9 mph 5 mph 73% 0 in
12:24 68.7 °F 59.4 °F 30.1 in ENE 2.1 mph 5.2 mph 72.1% 0 in
12:29 69.3 °F 59.4 °F 30.1 in NNE 1.8 mph 5 mph 70.7% 0 in
12:34 69.4 °F 59.2 °F 30.1 in Oeste 2.6 mph 5.2 mph 70% 0 in
12:39 69.4 °F 59 °F 30.1 in OSO 2.9 mph 5.9 mph 69.7% 0 in
12:44 69.4 °F 59.2 °F 30.1 in Oeste 2.5 mph 6.9 mph 70% 0 in
12:49 69.3 °F 59.2 °F 30.1 in OSO 2.4 mph 7 mph 70% 0 in
12:54 69.4 °F 59.2 °F 30.1 in SSE 2.9 mph 6 mph 70% 0 in
12:59 69.6 °F 59.2 °F 30.1 in Oeste 3.1 mph 6 mph 69.4% 0 in
13:04 69.6 °F 59.2 °F 30.1 in NO 2.5 mph 4.7 mph 69% 0 in
13:09 69.8 °F 59.2 °F 30.1 in NNO 2.4 mph 5 mph 69% 0 in
13:14 70.2 °F 59.5 °F 30.1 in NNE 2.8 mph 5 mph 68.8% 0 in
13:19 70.7 °F 59.5 °F 30.1 in ESE 2.9 mph 5.9 mph 68% 0 in
13:24 70.9 °F 59.5 °F 30.1 in SSE 2.9 mph 6.9 mph 67.2% 0 in
13:29 70.9 °F 59.7 °F 30.1 in ESE 2.9 mph 8.1 mph 68% 0 in
13:34 71.1 °F 59.9 °F 30.1 in Este 3.4 mph 8 mph 68% 0 in
13:39 71.1 °F 59.9 °F 30.1 in Sur 3.6 mph 6 mph 67.8% 0 in
13:44 71.2 °F 59.9 °F 30.1 in ONO 2.7 mph 5 mph 67.2% 0 in
13:49 71.8 °F 60.1 °F 30.1 in NO 2.4 mph 4 mph 66.5% 0 in
13:54 72.1 °F 60.1 °F 30.1 in SSO 1.9 mph 5.9 mph 65.7% 0 in
13:59 72.3 °F 59.7 °F 30.1 in Sur 1.8 mph 6.9 mph 64.6% 0 in
14:04 72.1 °F 59.5 °F 30.1 in ESE 2.8 mph 7 mph 64.1% 0 in
14:09 72 °F 59.5 °F 30.1 in NE 3.1 mph 6.9 mph 65.1% 0 in
14:14 71.4 °F 59.4 °F 30.1 in NE 3.5 mph 7 mph 65.7% 0 in
14:19 71.2 °F 59.4 °F 30.1 in Este 3.6 mph 7 mph 66% 0 in
14:24 71.2 °F 59.5 °F 30.1 in Este 3.2 mph 5.8 mph 66.1% 0 in
14:29 71.4 °F 59.5 °F 30.1 in North 3.1 mph 6 mph 66% 0 in
14:34 71.8 °F 59.7 °F 30.1 in NE 3 mph 6.9 mph 65.8% 0 in
14:39 71.8 °F 59.4 °F 30.1 in NE 2.9 mph 7.4 mph 65% 0 in
14:44 71.4 °F 59.4 °F 30.1 in NNE 3.4 mph 7 mph 65.8% 0 in
14:49 71.4 °F 59.7 °F 30.1 in NNE 3.6 mph 7 mph 66.2% 0 in
14:54 71.8 °F 59.7 °F 30.1 in ENE 3.9 mph 7 mph 66% 0 in
14:59 72 °F 59.9 °F 30.1 in Este 4 mph 9.2 mph 66% 0 in
15:04 72 °F 59.7 °F 30.1 in Este 4 mph 9 mph 65.2% 0 in
15:09 72.1 °F 59.4 °F 30.1 in ENE 4 mph 8 mph 64.3% 0 in
15:14 72.3 °F 59.5 °F 30.1 in ENE 4.2 mph 8.5 mph 64.1% 0 in
15:19 72.5 °F 59.9 °F 30.1 in NE 4.3 mph 9 mph 64.7% 0 in
15:24 72.3 °F 59.7 °F 30.1 in NE 5 mph 10.7 mph 64.5% 0 in
15:29 72.3 °F 59.9 °F 30.1 in NE 5.2 mph 11 mph 65% 0 in
15:34 72.1 °F 59.9 °F 30.1 in NE 5.3 mph 10 mph 65.1% 0 in
15:39 72.3 °F 59.9 °F 30.1 in NE 5.4 mph 7.4 mph 65% 0 in
15:44 72.5 °F 59.5 °F 30.1 in NNE 4.6 mph 7 mph 64% 0 in
15:49 72.5 °F 59.7 °F 30.1 in NE 4.3 mph 8.1 mph 64% 0 in
15:54 72.5 °F 59.7 °F 30.1 in NE 4.1 mph 9.2 mph 64% 0 in
15:59 72.3 °F 59.7 °F 30.1 in ENE 4 mph 11.4 mph 64.4% 0 in
16:04 72.3 °F 59.5 °F 30.1 in NE 4.9 mph 12 mph 64% 0 in
16:09 72.3 °F 59.7 °F 30.1 in NNE 5.2 mph 12 mph 64.4% 0 in
16:14 72.3 °F 59.9 °F 30.1 in ENE 5.7 mph 11 mph 64.9% 0 in
16:19 72.1 °F 59.7 °F 30.1 in ENE 5.9 mph 11.8 mph 64.8% 0 in
16:24 72.1 °F 59.4 °F 30.1 in ESE 5.9 mph 12 mph 63.8% 0 in
16:29 72.1 °F 59 °F 30.1 in ESE 5.9 mph 10 mph 63% 0 in
16:34 72.1 °F 59 °F 30.1 in ESE 6.2 mph 10 mph 63.2% 0 in
16:39 72.1 °F 59.4 °F 30.1 in ESE 6.2 mph 8.1 mph 64% 0 in
16:44 72 °F 59.2 °F 30.1 in ESE 5.1 mph 8.1 mph 64.1% 0 in
16:49 71.8 °F 59.5 °F 30.1 in ESE 4.7 mph 8.5 mph 65.2% 0 in
16:54 71.8 °F 59.9 °F 30.1 in ESE 4.4 mph 9.2 mph 66.3% 0 in
16:59 71.4 °F 60.1 °F 30.1 in ESE 4.3 mph 10.7 mph 67.2% 0 in
17:04 71.4 °F 60.3 °F 30.1 in ESE 6 mph 11 mph 68% 0 in
17:09 71.4 °F 60.3 °F 30.1 in ESE 6.4 mph 11.8 mph 68% 0 in
17:14 71.2 °F 60.3 °F 30.1 in ESE 6.8 mph 12.7 mph 68.1% 0 in
17:19 71.2 °F 60.1 °F 30.1 in ESE 6.9 mph 13.8 mph 68.2% 0 in
17:24 70.9 °F 60.3 °F 30.1 in ESE 7.4 mph 15 mph 69% 0 in
17:29 70.7 °F 60.1 °F 30.1 in ESE 7.6 mph 15 mph 69.2% 0 in
17:34 70.7 °F 60.3 °F 30.1 in ESE 6.7 mph 10.7 mph 69.7% 0 in
17:39 70.5 °F 60.3 °F 30.1 in ESE 6.4 mph 11 mph 69.9% 0 in
17:44 70.3 °F 60.3 °F 30.1 in ESE 6 mph 9.2 mph 70% 0 in
17:49 70.3 °F 60.1 °F 30.1 in ESE 5.9 mph 9.2 mph 70% 0 in
17:54 70.2 °F 60.1 °F 30.1 in Este 5.5 mph 10.4 mph 70.6% 0 in
17:59 69.8 °F 60.1 °F 30.1 in ESE 5.4 mph 10 mph 71.4% 0 in
18:04 69.4 °F 60.1 °F 30.1 in Este 6 mph 10.7 mph 72.3% 0 in
18:09 69.3 °F 60.1 °F 30.1 in ESE 6.2 mph 11 mph 73% 0 in
18:14 69.1 °F 60.3 °F 30.1 in ESE 5.6 mph 11.2 mph 73.9% 0 in
18:19 68.7 °F 60.1 °F 30.1 in ESE 5.4 mph 12.3 mph 74% 0 in
18:24 68.5 °F 60.3 °F 30.1 in ESE 6.2 mph 13 mph 74.8% 0 in
18:29 68.4 °F 60.1 °F 30.1 in ESE 6.4 mph 13.8 mph 75.1% 0 in
18:34 68.2 °F 60.3 °F 30.1 in ESE 6.4 mph 14 mph 76% 0 in
18:39 68 °F 60.3 °F 30.1 in ESE 6.4 mph 12 mph 76% 0 in
18:44 67.8 °F 60.1 °F 30.1 in ESE 6 mph 9 mph 76% 0 in
18:49 67.6 °F 60.3 °F 30.1 in ESE 5.9 mph 9 mph 77% 0 in
18:54 67.6 °F 60.3 °F 30.1 in ESE 5.4 mph 8 mph 77% 0 in
18:59 67.6 °F 60.1 °F 30.1 in ESE 5.2 mph 7.6 mph 77% 0 in
19:04 67.5 °F 60.1 °F 30.1 in ESE 4.8 mph 8.5 mph 77% 0 in
19:09 67.3 °F 60.1 °F 30.1 in Este 4.7 mph 9 mph 77.7% 0 in
19:14 67.1 °F 59.9 °F 30.1 in Este 4.2 mph 7 mph 78% 0 in
19:19 66.9 °F 59.7 °F 30.1 in Este 4 mph 6.2 mph 78% 0 in
19:24 66.7 °F 59.9 °F 30.1 in ENE 4 mph 6 mph 78.4% 0 in
19:29 66.6 °F 59.9 °F 30.1 in NE 4 mph 5 mph 79% 0 in
19:34 66.6 °F 59.7 °F 30.1 in NE 3.2 mph 4.6 mph 79% 0 in
19:39 66.4 °F 59.9 °F 30.1 in NE 2.9 mph 5.2 mph 79.6% 0 in
19:44 66.2 °F 59.7 °F 30.1 in NE 3 mph 5 mph 80% 0 in
19:49 66 °F 59.9 °F 30.1 in Este 3.1 mph 5.2 mph 80.4% 0 in
19:54 66 °F 60.1 °F 30.1 in Este 2.9 mph 5 mph 81% 0 in
19:59 66 °F 60.1 °F 30.1 in ENE 2.9 mph 3 mph 81% 0 in
20:04 65.8 °F 59.9 °F 30.1 in ENE 1.7 mph 3.6 mph 81% 0 in
20:09 65.8 °F 59.7 °F 30.1 in ENE 1.4 mph 4.3 mph 81% 0 in
20:14 65.7 °F 59.7 °F 30.1 in NE 2.1 mph 5 mph 81% 0 in
20:19 65.7 °F 59.7 °F 30.1 in NNE 2.4 mph 5 mph 81% 0 in
20:24 65.5 °F 59.7 °F 30.1 in NNE 2.1 mph 3 mph 82% 0 in
20:29 65.1 °F 59.5 °F 30.1 in NNE 2 mph 3 mph 82.1% 0 in
20:34 64.9 °F 59.7 °F 30.1 in NNE 1.9 mph 3 mph 83% 0 in
20:39 64.8 °F 59.5 °F 30.1 in NNE 1.8 mph 2.4 mph 83% 0 in
20:44 64.8 °F 59.5 °F 30.1 in North 0.5 mph 3.5 mph 83.3% 0 in
20:49 64.4 °F 59.5 °F 30.1 in Calm   3.6 mph 84% 0 in
20:54 64.2 °F 59.4 °F 30.1 in NNO 1.4 mph 4 mph 84% 0 in
20:59 64 °F 59.4 °F 30.1 in NNO 1.8 mph 3.5 mph 84.8% 0 in
21:04 64 °F 59.4 °F 30.1 in NNO 0.4 mph 3 mph 85% 0 in
21:09 64 °F 59.4 °F 30.1 in Calm   2.3 mph 85% 0 in
21:14 63.9 °F 59.4 °F 30.1 in Calm   3.5 mph 85% 0 in
21:19 63.9 °F 59.4 °F 30.1 in Calm   3.5 mph 85% 0 in
21:24 63.7 °F 59.4 °F 30.1 in NNO 1.5 mph 3.5 mph 85.6% 0 in
21:29 63.7 °F 59.4 °F 30.1 in NNO 2 mph 3.6 mph 86% 0 in
21:34 63.7 °F 59.4 °F 30.1 in NNO 1.9 mph 4 mph 86% 0 in
21:39 63.5 °F 59.2 °F 30.1 in NNO 1.8 mph 3.5 mph 86% 0 in
21:44 63.3 °F 59.2 °F 30.1 in NNO 1.8 mph 3 mph 86% 0 in
21:49 63.1 °F 59 °F 30.1 in NNO 1.8 mph 3 mph 86% 0 in
21:54 63.1 °F 59 °F 30.1 in NNO 0.4 mph   86.1% 0 in
21:59 63 °F 59 °F 30.1 in Calm     87% 0 in
22:04 63 °F 59 °F 30.1 in Calm     87% 0 in
22:09 63 °F 59 °F 30.1 in Calm     87% 0 in
22:14 63 °F 59.2 °F 30.1 in Calm   2.9 mph 87.6% 0 in
22:19 63.1 °F 59.4 °F 30.1 in Calm   3 mph 87.5% 0 in
22:24 63.1 °F 59.2 °F 30.1 in Calm   2 mph 87% 0 in
22:29 63.1 °F 59.2 °F 30.1 in Calm   1.4 mph 87% 0 in
22:34 63 °F 59 °F 30.1 in Calm   2.4 mph 87% 0 in
22:39 63 °F 59 °F 30.1 in Calm   3.6 mph 87% 0 in
22:44 63 °F 59 °F 30.1 in NNO 1.4 mph 4 mph 87% 0 in
22:49 62.8 °F 58.8 °F 30.1 in North 1.8 mph 4.6 mph 87% 0 in
22:54 62.4 °F 58.5 °F 30.1 in ENE 1.9 mph 5 mph 87% 0 in
22:59 62.2 °F 58.3 °F 30.1 in Este 2 mph 4.6 mph 87% 0 in
23:04 62.1 °F 58.1 °F 30.1 in ESE 2 mph 5 mph 87% 0 in
23:09 61.9 °F 58.3 °F 30.1 in ESE 2 mph 3 mph 87.8% 0 in
23:14 61.9 °F 58.3 °F 30.1 in Calm     88% 0 in
23:19 61.7 °F 58.1 °F 30.1 in Calm     88% 0 in
23:24 61.5 °F 57.9 °F 30.1 in Calm   4.6 mph 88% 0 in
23:29 61.3 °F 57.7 °F 30.1 in Calm   5 mph 88% 0 in
23:34 61 °F 57.6 °F 30.1 in Oeste 2.1 mph 5 mph 88.6% 0 in
23:39 60.6 °F 57.4 °F 30.1 in Oeste 2.9 mph 5 mph 89% 0 in
23:44 60.6 °F 57.4 °F 30.1 in Oeste 1.8 mph 2 mph 89.2% 0 in
23:49 60.6 °F 57.7 °F 30.1 in Oeste 1.4 mph   90% 0 in
23:54 60.6 °F 57.7 °F 30.1 in Oeste 0.4 mph   90.3% 0 in
23:59 60.6 °F 58.1 °F 30.1 in Calm     91% 0 in
Murcia-Puente Tocinos, España
Compliments of Weather Underground - 3.5 mb

La estación de MeteoMurcia.com, publica sus datos en los siguientes proyectos:

Weather Underground PWS IMURCIAP2 Meteoclimatic www.awekas.at

W3Counter
Web Analytics